sensor_id;sensor_type;location;lat;lon;timestamp;pressure;altitude;pressure_sealevel;temperature;humidity
43770;BME280;6597;52.218;9.882;2023-02-03T00:01:36;101210.28;;;5.96;100.00
43770;BME280;6597;52.218;9.882;2023-02-03T00:04:02;101219.75;;;6.04;100.00
43770;BME280;6597;52.218;9.882;2023-02-03T00:06:30;101206.72;;;6.04;100.00
43770;BME280;6597;52.218;9.882;2023-02-03T00:08:57;101212.66;;;6.17;100.00
43770;BME280;6597;52.218;9.882;2023-02-03T00:11:26;101225.66;;;6.23;100.00
43770;BME280;6597;52.218;9.882;2023-02-03T00:13:55;101222.97;;;6.32;100.00
43770;BME280;6597;52.218;9.882;2023-02-03T00:16:22;101209.88;;;6.37;100.00
43770;BME280;6597;52.218;9.882;2023-02-03T00:18:50;101202.81;;;6.45;100.00
43770;BME280;6597;52.218;9.882;2023-02-03T00:21:17;101196.63;;;6.57;100.00
43770;BME280;6597;52.218;9.882;2023-02-03T00:23:44;101190.47;;;6.61;100.00
43770;BME280;6597;52.218;9.882;2023-02-03T00:26:13;101187.78;;;6.68;100.00
43770;BME280;6597;52.218;9.882;2023-02-03T00:28:41;101179.94;;;6.68;100.00
43770;BME280;6597;52.218;9.882;2023-02-03T00:31:14;101186.88;;;6.69;100.00
43770;BME280;6597;52.218;9.882;2023-02-03T00:33:41;101186.00;;;6.70;100.00
43770;BME280;6597;52.218;9.882;2023-02-03T00:36:10;101172.06;;;6.73;100.00
43770;BME280;6597;52.218;9.882;2023-02-03T00:38:37;101184.22;;;6.74;100.00
43770;BME280;6597;52.218;9.882;2023-02-03T00:41:04;101179.81;;;6.79;100.00
43770;BME280;6597;52.218;9.882;2023-02-03T00:43:31;101178.03;;;6.81;100.00
43770;BME280;6597;52.218;9.882;2023-02-03T00:45:58;101180.63;;;6.85;100.00
43770;BME280;6597;52.218;9.882;2023-02-03T00:48:24;101178.81;;;6.89;100.00
43770;BME280;6597;52.218;9.882;2023-02-03T00:50:51;101186.59;;;6.94;100.00
43770;BME280;6597;52.218;9.882;2023-02-03T00:53:19;101188.28;;;6.96;100.00
43770;BME280;6597;52.218;9.882;2023-02-03T00:55:45;101177.78;;;7.01;100.00
43770;BME280;6597;52.218;9.882;2023-02-03T00:58:12;101182.97;;;7.04;100.00
43770;BME280;6597;52.218;9.882;2023-02-03T01:00:39;101181.16;;;7.07;100.00
43770;BME280;6597;52.218;9.882;2023-02-03T01:03:05;101174.09;;;7.14;100.00
43770;BME280;6597;52.218;9.882;2023-02-03T01:05:32;101178.44;;;7.18;100.00
43770;BME280;6597;52.218;9.882;2023-02-03T01:07:59;101177.47;;;7.24;100.00
43770;BME280;6597;52.218;9.882;2023-02-03T01:10:29;101180.91;;;7.27;100.00
43770;BME280;6597;52.218;9.882;2023-02-03T01:12:55;101171.28;;;7.29;100.00
43770;BME280;6597;52.218;9.882;2023-02-03T01:15:22;101173.81;;;7.34;100.00
43770;BME280;6597;52.218;9.882;2023-02-03T01:17:49;101166.84;;;7.36;100.00
43770;BME280;6597;52.218;9.882;2023-02-03T01:20:16;101170.34;;;7.33;100.00
43770;BME280;6597;52.218;9.882;2023-02-03T01:22:46;101183.34;;;7.38;100.00
43770;BME280;6597;52.218;9.882;2023-02-03T01:25:13;101187.69;;;7.39;100.00
43770;BME280;6597;52.218;9.882;2023-02-03T01:27:42;101185.88;;;7.42;100.00
43770;BME280;6597;52.218;9.882;2023-02-03T01:30:11;101187.63;;;7.42;100.00
43770;BME280;6597;52.218;9.882;2023-02-03T01:32:37;101184.16;;;7.41;100.00
43770;BME280;6597;52.218;9.882;2023-02-03T01:35:04;101182.38;;;7.43;100.00
43770;BME280;6597;52.218;9.882;2023-02-03T01:37:31;101185.81;;;7.45;100.00
43770;BME280;6597;52.218;9.882;2023-02-03T01:39:57;101187.53;;;7.49;100.00
43770;BME280;6597;52.218;9.882;2023-02-03T01:42:25;101179.66;;;7.51;100.00
43770;BME280;6597;52.218;9.882;2023-02-03T01:44:53;101177.91;;;7.53;100.00
43770;BME280;6597;52.218;9.882;2023-02-03T01:47:29;101192.72;;;7.53;100.00
43770;BME280;6597;52.218;9.882;2023-02-03T01:50:08;101181.31;;;7.57;100.00
43770;BME280;6597;52.218;9.882;2023-02-03T01:52:38;101183.97;;;7.55;100.00
43770;BME280;6597;52.218;9.882;2023-02-03T01:55:09;101185.72;;;7.55;100.00
43770;BME280;6597;52.218;9.882;2023-02-03T01:57:40;101181.28;;;7.58;100.00
43770;BME280;6597;52.218;9.882;2023-02-03T02:00:11;101174.41;;;7.54;100.00
43770;BME280;6597;52.218;9.882;2023-02-03T02:02:43;101165.72;;;7.52;100.00
43770;BME280;6597;52.218;9.882;2023-02-03T02:05:15;101158.66;;;7.57;100.00
43770;BME280;6597;52.218;9.882;2023-02-03T02:07:44;101156.91;;;7.59;100.00
43770;BME280;6597;52.218;9.882;2023-02-03T02:10:12;101139.50;;;7.58;100.00
43770;BME280;6597;52.218;9.882;2023-02-03T02:12:40;101151.66;;;7.59;100.00
43770;BME280;6597;52.218;9.882;2023-02-03T02:15:08;101134.22;;;7.61;100.00
43770;BME280;6597;52.218;9.882;2023-02-03T02:17:45;101135.00;;;7.66;100.00
43770;BME280;6597;52.218;9.882;2023-02-03T02:20:50;101121.00;;;7.69;100.00
43770;BME280;6597;52.218;9.882;2023-02-03T02:23:40;101108.78;;;7.71;100.00
43770;BME280;6597;52.218;9.882;2023-02-03T02:26:39;101111.41;;;7.69;100.00
43770;BME280;6597;52.218;9.882;2023-02-03T02:29:41;101132.28;;;7.72;100.00
43770;BME280;6597;52.218;9.882;2023-02-03T02:32:24;101105.22;;;7.75;100.00
43770;BME280;6597;52.218;9.882;2023-02-03T02:35:02;101080.75;;;7.80;100.00
43770;BME280;6597;52.218;9.882;2023-02-03T02:37:43;101074.63;;;7.80;100.00
43770;BME280;6597;52.218;9.882;2023-02-03T02:40:20;101065.06;;;7.79;100.00
43770;BME280;6597;52.218;9.882;2023-02-03T02:42:59;101058.94;;;7.82;100.00
43770;BME280;6597;52.218;9.882;2023-02-03T02:45:30;101071.13;;;7.83;100.00
43770;BME280;6597;52.218;9.882;2023-02-03T02:48:04;101064.97;;;7.85;100.00
43770;BME280;6597;52.218;9.882;2023-02-03T02:50:37;101068.44;;;7.86;100.00
43770;BME280;6597;52.218;9.882;2023-02-03T02:53:07;101046.81;;;7.77;100.00
43770;BME280;6597;52.218;9.882;2023-02-03T02:55:36;101064.88;;;7.90;100.00
43770;BME280;6597;52.218;9.882;2023-02-03T02:58:07;101069.19;;;7.92;100.00
43770;BME280;6597;52.218;9.882;2023-02-03T03:00:36;101067.41;;;7.94;100.00
43770;BME280;6597;52.218;9.882;2023-02-03T03:03:15;101035.31;;;7.88;100.00
43770;BME280;6597;52.218;9.882;2023-02-03T03:05:47;101056.91;;;7.96;100.00
43770;BME280;6597;52.218;9.882;2023-02-03T03:08:20;101041.31;;;7.93;100.00
43770;BME280;6597;52.218;9.882;2023-02-03T03:10:49;101022.06;;;7.95;100.00
43770;BME280;6597;52.218;9.882;2023-02-03T03:13:21;101027.34;;;7.94;100.00
43770;BME280;6597;52.218;9.882;2023-02-03T03:15:53;101039.44;;;7.98;100.00
43770;BME280;6597;52.218;9.882;2023-02-03T03:18:27;101033.41;;;7.96;100.00
43770;BME280;6597;52.218;9.882;2023-02-03T03:20:56;101023.81;;;7.96;100.00
43770;BME280;6597;52.218;9.882;2023-02-03T03:23:32;101048.88;;;8.05;100.00
43770;BME280;6597;52.218;9.882;2023-02-03T03:26:04;101049.81;;;8.02;100.00
43770;BME280;6597;52.218;9.882;2023-02-03T03:28:36;101066.44;;;8.00;100.00
43770;BME280;6597;52.218;9.882;2023-02-03T03:31:07;101057.63;;;8.04;100.00
43770;BME280;6597;52.218;9.882;2023-02-03T03:33:35;101050.69;;;8.03;100.00
43770;BME280;6597;52.218;9.882;2023-02-03T03:36:07;101044.59;;;8.02;100.00
43770;BME280;6597;52.218;9.882;2023-02-03T03:38:40;101042.00;;;8.01;100.00
43770;BME280;6597;52.218;9.882;2023-02-03T03:41:12;101036.78;;;8.01;100.00
43770;BME280;6597;52.218;9.882;2023-02-03T03:43:44;101028.84;;;8.05;100.00
43770;BME280;6597;52.218;9.882;2023-02-03T03:46:15;101027.97;;;8.05;100.00
43770;BME280;6597;52.218;9.882;2023-02-03T03:48:50;101015.72;;;8.07;99.44
43770;BME280;6597;52.218;9.882;2023-02-03T03:51:21;101018.28;;;8.10;99.64
43770;BME280;6597;52.218;9.882;2023-02-03T03:53:49;101020.94;;;8.08;99.82
43770;BME280;6597;52.218;9.882;2023-02-03T03:56:21;101012.16;;;8.11;99.39
43770;BME280;6597;52.218;9.882;2023-02-03T03:58:51;101012.16;;;8.11;99.33
43770;BME280;6597;52.218;9.882;2023-02-03T04:01:20;101010.44;;;8.10;98.85
43770;BME280;6597;52.218;9.882;2023-02-03T04:03:53;101013.88;;;8.12;99.06
43770;BME280;6597;52.218;9.882;2023-02-03T04:06:22;100996.47;;;8.11;99.46
43770;BME280;6597;52.218;9.882;2023-02-03T04:08:49;100993.00;;;8.10;99.10
43770;BME280;6597;52.218;9.882;2023-02-03T04:11:16;100986.06;;;8.08;99.20
43770;BME280;6597;52.218;9.882;2023-02-03T04:13:56;100998.25;;;8.09;97.99
43770;BME280;6597;52.218;9.882;2023-02-03T04:16:23;100988.56;;;8.16;97.27
43770;BME280;6597;52.218;9.882;2023-02-03T04:18:51;100986.66;;;8.22;96.59
43770;BME280;6597;52.218;9.882;2023-02-03T04:21:20;100994.50;;;8.22;97.05
43770;BME280;6597;52.218;9.882;2023-02-03T04:23:47;100996.38;;;8.17;97.07
43770;BME280;6597;52.218;9.882;2023-02-03T04:26:14;100995.41;;;8.21;96.74
43770;BME280;6597;52.218;9.882;2023-02-03T04:28:42;100991.81;;;8.25;96.27
43770;BME280;6597;52.218;9.882;2023-02-03T04:31:09;100990.84;;;8.29;96.71
43770;BME280;6597;52.218;9.882;2023-02-03T04:33:36;100996.91;;;8.31;96.40
43770;BME280;6597;52.218;9.882;2023-02-03T04:36:04;100993.38;;;8.35;96.32
43770;BME280;6597;52.218;9.882;2023-02-03T04:38:31;100996.84;;;8.36;96.59
43770;BME280;6597;52.218;9.882;2023-02-03T04:40:58;100985.59;;;8.31;95.91
43770;BME280;6597;52.218;9.882;2023-02-03T04:43:26;100990.75;;;8.35;95.27
43770;BME280;6597;52.218;9.882;2023-02-03T04:45:53;100996.84;;;8.36;95.61
43770;BME280;6597;52.218;9.882;2023-02-03T04:48:19;100988.97;;;8.37;95.47
43770;BME280;6597;52.218;9.882;2023-02-03T04:50:46;100991.59;;;8.36;95.81
43770;BME280;6597;52.218;9.882;2023-02-03T04:53:14;100996.88;;;8.33;96.29
43770;BME280;6597;52.218;9.882;2023-02-03T04:55:40;100988.06;;;8.38;95.97
43770;BME280;6597;52.218;9.882;2023-02-03T04:58:07;101001.06;;;8.41;95.40
43770;BME280;6597;52.218;9.882;2023-02-03T05:00:34;100987.16;;;8.39;95.96
43770;BME280;6597;52.218;9.882;2023-02-03T05:03:01;100977.59;;;8.38;95.70
43770;BME280;6597;52.218;9.882;2023-02-03T05:05:27;100972.25;;;8.43;95.94
43770;BME280;6597;52.218;9.882;2023-02-03T05:07:54;100967.13;;;8.38;96.29
43770;BME280;6597;52.218;9.882;2023-02-03T05:10:22;100978.38;;;8.42;96.58
43770;BME280;6597;52.218;9.882;2023-02-03T05:12:50;100983.72;;;8.37;95.44
43770;BME280;6597;52.218;9.882;2023-02-03T05:15:16;100967.00;;;8.45;95.26
43770;BME280;6597;52.218;9.882;2023-02-03T05:17:43;100973.19;;;8.40;95.58
43770;BME280;6597;52.218;9.882;2023-02-03T05:20:10;100984.44;;;8.46;95.74
43770;BME280;6597;52.218;9.882;2023-02-03T05:22:39;100969.63;;;8.43;95.06
43770;BME280;6597;52.218;9.882;2023-02-03T05:25:07;100962.66;;;8.43;95.89
43770;BME280;6597;52.218;9.882;2023-02-03T05:27:37;100952.19;;;8.43;94.96
43770;BME280;6597;52.218;9.882;2023-02-03T05:30:04;100960.97;;;8.41;95.24
43770;BME280;6597;52.218;9.882;2023-02-03T05:32:30;100952.19;;;8.43;95.00
43770;BME280;6597;52.218;9.882;2023-02-03T05:34:57;100942.59;;;8.46;94.79
43770;BME280;6597;52.218;9.882;2023-02-03T05:37:24;100936.41;;;8.48;94.92
43770;BME280;6597;52.218;9.882;2023-02-03T05:39:50;100929.53;;;8.42;95.58
43770;BME280;6597;52.218;9.882;2023-02-03T05:42:17;100937.47;;;8.39;95.20
43770;BME280;6597;52.218;9.882;2023-02-03T05:44:44;100933.91;;;8.42;95.24
43770;BME280;6597;52.218;9.882;2023-02-03T05:47:11;100933.91;;;8.42;94.97
43770;BME280;6597;52.218;9.882;2023-02-03T05:49:38;100933.00;;;8.43;95.58
43770;BME280;6597;52.218;9.882;2023-02-03T05:52:04;100917.50;;;8.35;94.60
43770;BME280;6597;52.218;9.882;2023-02-03T05:54:34;100931.28;;;8.42;94.72
43770;BME280;6597;52.218;9.882;2023-02-03T05:57:08;100938.25;;;8.43;95.31
43770;BME280;6597;52.218;9.882;2023-02-03T05:59:39;100926.06;;;8.42;95.27
43770;BME280;6597;52.218;9.882;2023-02-03T06:02:10;100933.94;;;8.40;96.00
43770;BME280;6597;52.218;9.882;2023-02-03T06:04:40;100924.41;;;8.38;96.17
43770;BME280;6597;52.218;9.882;2023-02-03T06:07:14;100928.00;;;8.32;97.57
43770;BME280;6597;52.218;9.882;2023-02-03T06:09:43;100914.09;;;8.30;98.59
43770;BME280;6597;52.218;9.882;2023-02-03T06:12:14;100915.09;;;8.26;98.59
43770;BME280;6597;52.218;9.882;2023-02-03T06:14:44;100923.91;;;8.22;100.00
43770;BME280;6597;52.218;9.882;2023-02-03T06:17:36;100920.47;;;8.20;99.66
43770;BME280;6597;52.218;9.882;2023-02-03T06:20:29;100914.34;;;8.21;99.86
43770;BME280;6597;52.218;9.882;2023-02-03T06:23:03;100920.50;;;8.19;100.00
43770;BME280;6597;52.218;9.882;2023-02-03T06:25:35;100925.66;;;8.22;100.00
43770;BME280;6597;52.218;9.882;2023-02-03T06:28:08;100927.38;;;8.23;100.00
43770;BME280;6597;52.218;9.882;2023-02-03T06:30:38;100930.81;;;8.25;99.95
43770;BME280;6597;52.218;9.882;2023-02-03T06:33:09;100927.38;;;8.23;100.00
43770;BME280;6597;52.218;9.882;2023-02-03T06:35:38;100932.59;;;8.23;100.00
43770;BME280;6597;52.218;9.882;2023-02-03T06:38:11;100926.47;;;8.24;100.00
43770;BME280;6597;52.218;9.882;2023-02-03T06:40:40;100927.34;;;8.24;100.00
43770;BME280;6597;52.218;9.882;2023-02-03T06:43:15;100922.06;;;8.26;100.00
43770;BME280;6597;52.218;9.882;2023-02-03T06:45:48;100927.38;;;8.23;100.00
43770;BME280;6597;52.218;9.882;2023-02-03T06:48:21;100918.75;;;8.19;100.00
43770;BME280;6597;52.218;9.882;2023-02-03T06:50:53;100920.59;;;8.14;100.00
43770;BME280;6597;52.218;9.882;2023-02-03T06:53:22;100912.69;;;8.17;100.00
43770;BME280;6597;52.218;9.882;2023-02-03T06:55:51;100923.22;;;8.14;100.00
43770;BME280;6597;52.218;9.882;2023-02-03T06:58:22;100920.69;;;8.09;100.00
43770;BME280;6597;52.218;9.882;2023-02-03T07:00:57;100911.06;;;8.10;100.00
43770;BME280;6597;52.218;9.882;2023-02-03T07:03:28;100920.75;;;8.06;100.00
43770;BME280;6597;52.218;9.882;2023-02-03T07:05:57;100906.78;;;8.07;100.00
43770;BME280;6597;52.218;9.882;2023-02-03T07:08:30;100898.09;;;8.05;100.00
43770;BME280;6597;52.218;9.882;2023-02-03T07:10:57;100899.91;;;8.03;100.00
43770;BME280;6597;52.218;9.882;2023-02-03T07:13:24;100901.78;;;7.97;100.00
43770;BME280;6597;52.218;9.882;2023-02-03T07:15:51;100894.09;;;7.91;100.00
43770;BME280;6597;52.218;9.882;2023-02-03T07:18:17;100873.31;;;7.85;100.00
43770;BME280;6597;52.218;9.882;2023-02-03T07:20:50;100877.72;;;7.83;100.00
43770;BME280;6597;52.218;9.882;2023-02-03T07:23:17;100883.78;;;7.85;100.00
43770;BME280;6597;52.218;9.882;2023-02-03T07:25:44;100873.41;;;7.82;100.00
43770;BME280;6597;52.218;9.882;2023-02-03T07:28:10;100892.47;;;7.85;100.00
43770;BME280;6597;52.218;9.882;2023-02-03T07:30:37;100896.78;;;7.88;100.00
43770;BME280;6597;52.218;9.882;2023-02-03T07:33:04;100902.88;;;7.88;100.00
43770;BME280;6597;52.218;9.882;2023-02-03T07:35:32;100883.84;;;7.82;100.00
43770;BME280;6597;52.218;9.882;2023-02-03T07:38:00;100889.13;;;7.78;100.00
43770;BME280;6597;52.218;9.882;2023-02-03T07:40:27;100888.28;;;7.76;100.00
43770;BME280;6597;52.218;9.882;2023-02-03T07:42:53;100867.41;;;7.75;100.00
43770;BME280;6597;52.218;9.882;2023-02-03T07:45:20;100879.53;;;7.80;100.00
43770;BME280;6597;52.218;9.882;2023-02-03T07:47:49;100882.13;;;7.80;100.00
43770;BME280;6597;52.218;9.882;2023-02-03T07:50:16;100865.53;;;7.83;100.00
43770;BME280;6597;52.218;9.882;2023-02-03T07:52:42;100855.03;;;7.85;100.00
43770;BME280;6597;52.218;9.882;2023-02-03T07:55:10;100847.19;;;7.85;100.00
43770;BME280;6597;52.218;9.882;2023-02-03T07:57:37;100842.88;;;7.84;100.00
43770;BME280;6597;52.218;9.882;2023-02-03T08:00:08;100863.59;;;7.91;100.00
43770;BME280;6597;52.218;9.882;2023-02-03T08:02:38;100850.53;;;7.91;100.00
43770;BME280;6597;52.218;9.882;2023-02-03T08:05:05;100853.09;;;7.93;100.00
43770;BME280;6597;52.218;9.882;2023-02-03T08:07:33;100847.69;;;8.00;100.00
43770;BME280;6597;52.218;9.882;2023-02-03T08:10:00;100848.56;;;8.01;100.00
43770;BME280;6597;52.218;9.882;2023-02-03T08:12:28;100861.53;;;8.04;100.00
43770;BME280;6597;52.218;9.882;2023-02-03T08:14:54;100853.59;;;8.08;100.00
43770;BME280;6597;52.218;9.882;2023-02-03T08:17:21;100840.69;;;8.01;100.00
43770;BME280;6597;52.218;9.882;2023-02-03T08:19:48;100883.31;;;8.04;100.00
43770;BME280;6597;52.218;9.882;2023-02-03T08:22:15;100864.09;;;8.07;100.00
43770;BME280;6597;52.218;9.882;2023-02-03T08:24:41;100837.94;;;8.07;100.00
43770;BME280;6597;52.218;9.882;2023-02-03T08:27:10;100844.78;;;8.12;100.00
43770;BME280;6597;52.218;9.882;2023-02-03T08:29:38;100853.38;;;8.19;100.00
43770;BME280;6597;52.218;9.882;2023-02-03T08:32:08;100839.31;;;8.23;100.00
43770;BME280;6597;52.218;9.882;2023-02-03T08:34:35;100829.56;;;8.30;100.00
43770;BME280;6597;52.218;9.882;2023-02-03T08:37:03;100819.94;;;8.30;100.00
43770;BME280;6597;52.218;9.882;2023-02-03T08:39:32;100825.97;;;8.35;100.00
43770;BME280;6597;52.218;9.882;2023-02-03T08:42:00;100859.81;;;8.41;100.00
43770;BME280;6597;52.218;9.882;2023-02-03T08:44:28;100864.91;;;8.48;100.00
43770;BME280;6597;52.218;9.882;2023-02-03T08:46:56;100863.03;;;8.53;100.00
43770;BME280;6597;52.218;9.882;2023-02-03T08:49:25;100852.50;;;8.56;100.00
43770;BME280;6597;52.218;9.882;2023-02-03T08:51:52;100868.97;;;8.59;100.00
43770;BME280;6597;52.218;9.882;2023-02-03T08:54:19;100850.53;;;8.64;100.00
43770;BME280;6597;52.218;9.882;2023-02-03T08:56:46;100858.53;;;8.58;100.00
43770;BME280;6597;52.218;9.882;2023-02-03T08:59:13;100848.00;;;8.61;100.00
43770;BME280;6597;52.218;9.882;2023-02-03T09:01:40;100856.78;;;8.58;100.00
43770;BME280;6597;52.218;9.882;2023-02-03T09:04:10;100846.28;;;8.60;100.00
43770;BME280;6597;52.218;9.882;2023-02-03T09:06:37;100860.22;;;8.60;100.00
43770;BME280;6597;52.218;9.882;2023-02-03T09:09:04;100869.94;;;8.55;100.00
43770;BME280;6597;52.218;9.882;2023-02-03T09:11:31;100871.16;;;8.40;100.00
43770;BME280;6597;52.218;9.882;2023-02-03T09:13:57;100868.81;;;8.28;100.00
43770;BME280;6597;52.218;9.882;2023-02-03T09:16:24;100877.59;;;8.26;100.00
43770;BME280;6597;52.218;9.882;2023-02-03T09:18:51;100875.97;;;8.22;100.00
43770;BME280;6597;52.218;9.882;2023-02-03T09:21:19;100881.97;;;8.25;100.00
43770;BME280;6597;52.218;9.882;2023-02-03T09:23:46;100867.94;;;8.29;100.00
43770;BME280;6597;52.218;9.882;2023-02-03T09:26:14;100881.66;;;8.39;100.00
43770;BME280;6597;52.218;9.882;2023-02-03T09:28:41;100868.34;;;8.50;100.00
43770;BME280;6597;52.218;9.882;2023-02-03T09:31:09;100880.28;;;8.60;100.00
43770;BME280;6597;52.218;9.882;2023-02-03T09:33:37;100867.09;;;8.64;100.00
43770;BME280;6597;52.218;9.882;2023-02-03T09:36:06;100866.00;;;8.73;100.00
43770;BME280;6597;52.218;9.882;2023-02-03T09:38:34;100883.50;;;8.71;100.00
43770;BME280;6597;52.218;9.882;2023-02-03T09:41:06;100854.81;;;8.66;100.00
43770;BME280;6597;52.218;9.882;2023-02-03T09:43:40;100864.31;;;8.70;100.00
43770;BME280;6597;52.218;9.882;2023-02-03T09:46:12;100865.22;;;8.69;100.00
43770;BME280;6597;52.218;9.882;2023-02-03T09:48:44;100860.75;;;8.73;100.00
43770;BME280;6597;52.218;9.882;2023-02-03T09:51:17;100831.16;;;8.71;100.00
43770;BME280;6597;52.218;9.882;2023-02-03T09:53:49;100844.25;;;8.71;100.00
43770;BME280;6597;52.218;9.882;2023-02-03T09:56:25;100833.94;;;8.65;100.00
43770;BME280;6597;52.218;9.882;2023-02-03T09:58:54;100863.63;;;8.64;100.00
43770;BME280;6597;52.218;9.882;2023-02-03T10:01:22;100885.50;;;8.61;100.00
43770;BME280;6597;52.218;9.882;2023-02-03T10:03:53;100868.06;;;8.60;100.00
43770;BME280;6597;52.218;9.882;2023-02-03T10:06:30;100874.16;;;8.61;100.00
43770;BME280;6597;52.218;9.882;2023-02-03T10:09:18;100846.28;;;8.60;100.00
43770;BME280;6597;52.218;9.882;2023-02-03T10:12:05;100846.06;;;8.67;100.00
43770;BME280;6597;52.218;9.882;2023-02-03T10:14:48;100844.28;;;8.69;100.00
43770;BME280;6597;52.218;9.882;2023-02-03T10:17:26;100849.31;;;8.77;100.00
43770;BME280;6597;52.218;9.882;2023-02-03T10:19:59;100863.03;;;8.87;100.00
43770;BME280;6597;52.218;9.882;2023-02-03T10:22:28;100851.63;;;8.89;100.00
43770;BME280;6597;52.218;9.882;2023-02-03T10:25:00;100856.72;;;8.94;100.00
43770;BME280;6597;52.218;9.882;2023-02-03T10:27:33;100858.41;;;8.96;100.00
43770;BME280;6597;52.218;9.882;2023-02-03T10:30:04;100858.31;;;8.99;100.00
43770;BME280;6597;52.218;9.882;2023-02-03T10:32:36;100875.56;;;9.07;99.63
43770;BME280;6597;52.218;9.882;2023-02-03T10:35:10;100869.34;;;9.12;99.71
43770;BME280;6597;52.218;9.882;2023-02-03T10:37:41;100882.44;;;9.12;99.38
43770;BME280;6597;52.218;9.882;2023-02-03T10:40:13;100889.44;;;9.10;99.89
43770;BME280;6597;52.218;9.882;2023-02-03T10:42:41;100901.06;;;9.00;100.00
43770;BME280;6597;52.218;9.882;2023-02-03T10:45:27;100842.88;;;8.90;100.00
43770;BME280;6597;52.218;9.882;2023-02-03T10:47:54;100884.59;;;8.96;100.00
43770;BME280;6597;52.218;9.882;2023-02-03T10:50:23;100886.22;;;9.00;100.00
43770;BME280;6597;52.218;9.882;2023-02-03T10:53:19;100905.88;;;8.84;100.00
43770;BME280;6597;52.218;9.882;2023-02-03T10:55:50;100924.47;;;8.72;100.00
43770;BME280;6597;52.218;9.882;2023-02-03T10:58:23;100925.69;;;8.59;100.00
43770;BME280;6597;52.218;9.882;2023-02-03T11:00:54;100912.13;;;8.41;100.00
43770;BME280;6597;52.218;9.882;2023-02-03T11:03:24;100911.41;;;8.35;100.00
43770;BME280;6597;52.218;9.882;2023-02-03T11:06:06;100920.16;;;8.34;100.00
43770;BME280;6597;52.218;9.882;2023-02-03T11:08:35;100900.88;;;8.38;100.00
43770;BME280;6597;52.218;9.882;2023-02-03T11:11:05;100898.31;;;8.36;100.00
43770;BME280;6597;52.218;9.882;2023-02-03T11:13:33;100912.13;;;8.41;100.00
43770;BME280;6597;52.218;9.882;2023-02-03T11:16:03;100927.75;;;8.45;100.00
43770;BME280;6597;52.218;9.882;2023-02-03T11:18:43;100914.50;;;8.52;100.00
43770;BME280;6597;52.218;9.882;2023-02-03T11:21:14;100903.81;;;8.61;100.00
43770;BME280;6597;52.218;9.882;2023-02-03T11:23:47;100918.53;;;8.65;100.00
43770;BME280;6597;52.218;9.882;2023-02-03T11:26:22;100913.97;;;8.73;100.00
43770;BME280;6597;52.218;9.882;2023-02-03T11:28:51;100920.00;;;8.76;100.00
43770;BME280;6597;52.218;9.882;2023-02-03T11:31:22;100919.09;;;8.78;100.00
43770;BME280;6597;52.218;9.882;2023-02-03T11:33:58;100935.47;;;8.86;99.27
43770;BME280;6597;52.218;9.882;2023-02-03T11:36:30;100930.94;;;8.93;99.52
43770;BME280;6597;52.218;9.882;2023-02-03T11:39:18;100934.47;;;8.92;99.20
43770;BME280;6597;52.218;9.882;2023-02-03T11:41:47;100927.50;;;8.91;98.15
43770;BME280;6597;52.218;9.882;2023-02-03T11:44:17;100938.72;;;8.96;98.31
43770;BME280;6597;52.218;9.882;2023-02-03T11:46:45;100947.50;;;8.93;99.02
43770;BME280;6597;52.218;9.882;2023-02-03T11:49:47;100937.69;;;9.01;97.51
43770;BME280;6597;52.218;9.882;2023-02-03T11:52:31;100942.81;;;9.06;96.25
43770;BME280;6597;52.218;9.882;2023-02-03T11:55:07;100942.59;;;9.15;96.47
43770;BME280;6597;52.218;9.882;2023-02-03T11:57:48;100953.06;;;9.15;96.01
43770;BME280;6597;52.218;9.882;2023-02-03T12:00:29;100949.66;;;9.12;95.62
43770;BME280;6597;52.218;9.882;2023-02-03T12:03:16;100951.44;;;9.11;95.23
43770;BME280;6597;52.218;9.882;2023-02-03T12:05:57;100960.09;;;9.13;94.02
43770;BME280;6597;52.218;9.882;2023-02-03T12:08:38;100955.78;;;9.12;94.04
43770;BME280;6597;52.218;9.882;2023-02-03T12:11:16;100979.25;;;9.15;92.34
43770;BME280;6597;52.218;9.882;2023-02-03T12:14:10;100959.25;;;9.13;93.83
43770;BME280;6597;52.218;9.882;2023-02-03T12:16:53;100972.22;;;9.17;92.34
43770;BME280;6597;52.218;9.882;2023-02-03T12:19:29;100971.19;;;9.23;90.18
43770;BME280;6597;52.218;9.882;2023-02-03T12:22:07;100987.88;;;9.19;89.49
43770;BME280;6597;52.218;9.882;2023-02-03T12:24:43;100968.38;;;9.30;88.96
43770;BME280;6597;52.218;9.882;2023-02-03T12:27:21;100975.16;;;9.38;88.65
43770;BME280;6597;52.218;9.882;2023-02-03T12:29:55;100972.41;;;9.42;87.86
43770;BME280;6597;52.218;9.882;2023-02-03T12:32:28;100976.66;;;9.48;88.01
43770;BME280;6597;52.218;9.882;2023-02-03T12:35:04;100992.16;;;9.55;88.06
43770;BME280;6597;52.218;9.882;2023-02-03T12:37:42;100978.28;;;9.52;87.44
43770;BME280;6597;52.218;9.882;2023-02-03T12:40:13;100968.66;;;9.52;86.84
43770;BME280;6597;52.218;9.882;2023-02-03T12:42:49;100974.72;;;9.54;86.58
43770;BME280;6597;52.218;9.882;2023-02-03T12:45:22;100962.44;;;9.56;85.17
43770;BME280;6597;52.218;9.882;2023-02-03T12:47:54;100968.56;;;9.55;84.40
43770;BME280;6597;52.218;9.882;2023-02-03T12:50:26;100988.41;;;9.64;85.50
43770;BME280;6597;52.218;9.882;2023-02-03T12:52:58;100996.31;;;9.62;85.51
43770;BME280;6597;52.218;9.882;2023-02-03T12:55:33;100997.41;;;9.55;86.40
43770;BME280;6597;52.218;9.882;2023-02-03T12:58:03;100995.34;;;9.66;87.37
43770;BME280;6597;52.218;9.882;2023-02-03T13:00:39;100987.38;;;9.70;86.78
43770;BME280;6597;52.218;9.882;2023-02-03T13:03:15;100979.44;;;9.73;85.48
43770;BME280;6597;52.218;9.882;2023-02-03T13:05:47;101002.03;;;9.78;84.83
43770;BME280;6597;52.218;9.882;2023-02-03T13:08:22;101001.06;;;9.81;81.76
43770;BME280;6597;52.218;9.882;2023-02-03T13:10:54;101003.59;;;9.84;80.85
43770;BME280;6597;52.218;9.882;2023-02-03T13:13:30;100989.56;;;9.86;80.39
43770;BME280;6597;52.218;9.882;2023-02-03T13:16:06;101000.75;;;9.91;79.54
43770;BME280;6597;52.218;9.882;2023-02-03T13:18:36;100992.63;;;10.01;78.52
43770;BME280;6597;52.218;9.882;2023-02-03T13:21:09;100996.97;;;10.02;74.91
43770;BME280;6597;52.218;9.882;2023-02-03T13:23:36;100994.97;;;10.11;73.50
43770;BME280;6597;52.218;9.882;2023-02-03T13:26:27;101011.59;;;10.10;71.28